Time;durP1;ratioP1;P1;durP2;ratioP2;P2;SDS_P1;SDS_P2;PMS_P1;PMS_P2;Temp;Humidity;BMP_temperature;BMP_pressure;BME280_temperature;BME280_humidity;BME280_pressure;Samples;Min_cycle;Max_cycle;Signal;HPM_P1;HPM_P2
2023/12/24 00:01:44;;;;;;;2.20;1.50;;;;;;;7.00;69.87;98101.03;5106899;28;20051;-70
2023/12/24 00:04:13;;;;;;;2.28;1.50;;;;;;;6.99;69.99;98107.22;5107119;28;20052;-71
2023/12/24 00:06:39;;;;;;;2.67;1.30;;;;;;;6.99;69.95;98079.09;5106562;28;20044;-71
2023/12/24 00:09:06;;;;;;;2.08;1.40;;;;;;;6.97;69.88;98112.59;5106734;28;20040;-71
2023/12/24 00:11:33;;;;;;;2.20;1.35;;;;;;;6.99;69.98;98136.22;5106480;28;20048;-71
2023/12/24 00:13:59;;;;;;;2.10;1.40;;;;;;;7.01;69.63;98108.00;5106659;28;20311;-70
2023/12/24 00:16:26;;;;;;;2.50;1.50;;;;;;;7.03;69.20;98127.19;5106413;28;20040;-70
2023/12/24 00:18:52;;;;;;;2.83;1.60;;;;;;;6.85;69.38;98099.31;5105484;28;20039;-71
2023/12/24 00:21:21;;;;;;;9.43;1.85;;;;;;;7.06;69.22;98111.19;5106565;28;20040;-70
2023/12/24 00:23:49;;;;;;;1.98;1.30;;;;;;;7.02;69.39;98110.53;5106200;28;20089;-70
2023/12/24 00:26:16;;;;;;;2.63;1.40;;;;;;;7.09;68.91;98100.47;5106140;28;20199;-71
2023/12/24 00:28:44;;;;;;;2.20;1.50;;;;;;;4.33;68.93;97710.97;5106449;28;20044;-71
2023/12/24 00:31:10;;;;;;;4.70;1.45;;;;;;;7.06;69.07;98116.47;5106406;28;20048;-70
2023/12/24 00:33:37;;;;;;;1.92;1.20;;;;;;;7.11;68.43;98103.84;5106334;28;20094;-71
2023/12/24 00:36:04;;;;;;;1.95;1.30;;;;;;;7.11;67.96;98098.59;5106371;28;20234;-71
2023/12/24 00:38:32;;;;;;;1.80;1.20;;;;;;;7.09;68.37;98089.09;5106558;28;20067;-71
2023/12/24 00:40:58;;;;;;;2.25;1.42;;;;;;;7.11;68.40;98108.28;5106004;28;20044;-70
2023/12/24 00:43:25;;;;;;;1.67;1.20;;;;;;;7.08;68.03;98082.97;5105297;28;20040;-71
2023/12/24 00:45:51;;;;;;;2.42;1.38;;;;;;;7.13;68.08;98128.31;5106077;28;20109;-70
2023/12/24 00:48:18;;;;;;;1.65;1.20;;;;;;;7.14;68.09;98105.47;5105887;28;20052;-70
2023/12/24 00:50:45;;;;;;;2.55;1.30;;;;;;;6.79;68.07;98054.88;5106119;28;20043;-70
2023/12/24 00:53:11;;;;;;;1.90;1.30;;;;;;;7.15;67.77;98110.63;5106100;28;20086;-70
2023/12/24 00:55:41;;;;;;;1.90;1.20;;;;;;;7.15;67.62;98109.78;5106044;28;20047;-70
2023/12/24 00:58:08;;;;;;;2.67;1.65;;;;;;;7.15;67.96;98097.47;5105638;28;20044;-70
2023/12/24 01:00:35;;;;;;;3.28;1.30;;;;;;;6.95;68.07;98087.28;5106002;28;20047;-70
2023/12/24 01:03:01;;;;;;;1.85;1.23;;;;;;;7.19;68.14;98166.63;5106262;28;20101;-70
2023/12/24 01:05:28;;;;;;;2.83;1.30;;;;;;;7.20;68.43;98115.63;5105845;28;20062;-69
2023/12/24 01:07:55;;;;;;;1.92;1.33;;;;;;;7.18;68.46;98109.59;5105877;28;20048;-70
2023/12/24 01:10:21;;;;;;;1.88;1.30;;;;;;;7.16;68.78;98178.19;5105560;28;20052;-69
2023/12/24 01:12:49;;;;;;;2.22;1.40;;;;;;;7.23;68.40;98124.19;5105805;28;20044;-70
2023/12/24 01:15:16;;;;;;;2.17;1.42;;;;;;;7.21;68.41;98123.44;5105774;28;20059;-70
2023/12/24 01:17:43;;;;;;;2.10;1.40;;;;;;;7.21;68.54;98136.59;5106055;28;20048;-70
2023/12/24 01:20:14;;;;;;;2.30;1.60;;;;;;;7.04;68.40;98074.41;5105518;28;20044;-70
2023/12/24 01:22:40;;;;;;;3.22;1.60;;;;;;;7.22;68.45;98106.69;5105782;28;20046;-70
2023/12/24 01:25:08;;;;;;;1.98;1.40;;;;;;;7.22;68.21;98101.41;5105896;28;20107;-71
2023/12/24 01:27:35;;;;;;;2.05;1.50;;;;;;;7.20;68.36;98103.28;5105470;28;20111;-71
2023/12/24 01:30:04;;;;;;;2.30;1.40;;;;;;;7.02;68.72;98081.56;5105268;28;20125;-71
2023/12/24 01:32:30;;;;;;;2.05;1.30;;;;;;;7.23;68.29;98134.72;5105669;28;20078;-70
2023/12/24 01:34:57;;;;;;;2.10;1.42;;;;;;;7.20;68.44;98139.34;5108005;28;20036;-70
2023/12/24 01:37:24;;;;;;;2.47;1.40;;;;;;;7.26;68.20;98102.06;5109692;28;20314;-70
2023/12/24 01:39:50;;;;;;;2.35;1.60;;;;;;;7.27;68.34;98082.69;5109637;28;20097;-70
2023/12/24 01:42:17;;;;;;;2.53;1.48;;;;;;;7.07;67.99;98057.56;5109963;28;20040;-70
2023/12/24 01:44:44;;;;;;;2.50;1.50;;;;;;;7.24;68.05;98069.69;5109499;28;20098;-71
2023/12/24 01:47:13;;;;;;;2.80;1.60;;;;;;;7.07;67.96;98083.91;5109545;28;20055;-71
2023/12/24 01:49:41;;;;;;;2.70;1.50;;;;;;;7.26;67.96;98094.16;5109483;28;20043;-70
2023/12/24 01:52:08;;;;;;;1.98;1.30;;;;;;;7.24;67.91;98115.34;5109195;28;20040;-71
2023/12/24 01:54:35;;;;;;;3.03;1.30;;;;;;;7.25;67.90;98095.09;5109142;28;20047;-71
2023/12/24 01:57:02;;;;;;;1.70;1.20;;;;;;;7.28;67.44;98137.09;5109214;28;20121;-70
2023/12/24 01:59:30;;;;;;;5.28;2.05;;;;;;;7.31;67.42;98063.94;5108121;28;20093;-70
2023/12/24 02:01:57;;;;;;;2.30;1.50;;;;;;;7.26;67.34;98073.09;5108969;28;20345;-71
2023/12/24 02:04:25;;;;;;;2.40;1.40;;;;;;;7.31;67.39;98097.38;5109198;28;20101;-71
2023/12/24 02:06:52;;;;;;;2.40;1.60;;;;;;;7.30;67.57;98093.88;5109102;28;20048;-71
2023/12/24 02:09:19;;;;;;;2.88;1.40;;;;;;;7.30;67.78;98061.41;5108844;28;20108;-71
2023/12/24 02:11:45;;;;;;;1.98;1.30;;;;;;;7.30;68.15;98087.75;5109060;28;20101;-70
2023/12/24 02:14:12;;;;;;;3.83;1.40;;;;;;;7.27;68.44;98070.34;5107905;28;20296;-70
2023/12/24 02:16:41;;;;;;;2.25;1.40;;;;;;;7.28;68.07;98073.84;5108962;28;20039;-71
2023/12/24 02:19:15;;;;;;;2.53;1.40;;;;;;;7.29;67.97;98062.34;5108923;28;20044;-71
2023/12/24 02:21:43;;;;;;;2.20;1.40;;;;;;;7.09;67.80;98045.13;5108958;28;20050;-70
2023/12/24 02:24:10;;;;;;;2.20;1.52;;;;;;;7.10;67.58;98041.56;5108890;28;20208;-71
2023/12/24 02:26:41;;;;;;;2.28;1.50;;;;;;;7.34;66.96;98110.38;5108751;28;20056;-69
2023/12/24 02:29:13;;;;;;;2.47;1.67;;;;;;;7.35;66.88;98101.53;5108745;28;20093;-70
2023/12/24 02:31:43;;;;;;;2.17;1.42;;;;;;;7.35;66.96;98077.81;5108759;28;20050;-70
2023/12/24 02:34:14;;;;;;;1.90;1.30;;;;;;;7.33;66.30;98072.63;5108926;28;20052;-69
2023/12/24 02:36:44;;;;;;;2.10;1.38;;;;;;;7.34;66.32;98079.59;5108624;28;20040;-69
2023/12/24 02:39:09;;;;;;;2.67;1.63;;;;;;;7.32;66.39;98089.38;5108348;28;20052;-70
2023/12/24 02:41:36;;;;;;;2.45;1.60;;;;;;;7.32;66.23;98088.50;5108722;28;20044;-70
2023/12/24 02:44:03;;;;;;;2.33;1.63;;;;;;;7.23;66.05;98047.78;5108186;28;20048;-70
2023/12/24 02:46:29;;;;;;;2.20;1.50;;;;;;;7.36;65.71;98095.31;5107365;28;20093;-70
2023/12/24 02:48:56;;;;;;;2.17;1.40;;;;;;;7.41;65.41;98089.75;5108046;28;20044;-70
2023/12/24 02:51:22;;;;;;;2.53;1.77;;;;;;;7.40;65.50;98059.94;5108162;28;20044;-71
2023/12/24 02:53:51;;;;;;;2.00;1.40;;;;;;;7.41;65.66;98063.41;5108206;28;20048;-70
2023/12/24 02:56:18;;;;;;;2.92;1.92;;;;;;;7.40;65.51;98070.47;5107311;28;20036;-70
2023/12/24 02:58:44;;;;;;;3.05;1.60;;;;;;;7.41;65.34;98052.88;5108128;28;20040;-70
2023/12/24 03:01:11;;;;;;;2.30;1.60;;;;;;;7.43;65.58;98050.97;5108435;28;20096;-69
2023/12/24 03:03:38;;;;;;;2.60;1.30;;;;;;;7.41;65.63;98056.34;5108266;28;20089;-70
2023/12/24 03:06:05;;;;;;;4.03;1.40;;;;;;;7.44;65.30;98063.22;5107622;28;20248;-69
2023/12/24 03:08:33;;;;;;;1.88;1.33;;;;;;;7.44;65.49;98053.50;5107976;28;20043;-69
2023/12/24 03:11:02;;;;;;;2.53;1.50;;;;;;;7.38;65.47;98083.75;5107445;28;20048;-70
2023/12/24 03:13:29;;;;;;;2.55;1.60;;;;;;;7.37;65.82;98054.84;5107876;28;20094;-70
2023/12/24 03:15:55;;;;;;;3.60;1.60;;;;;;;7.18;65.60;98076.19;5107589;28;20040;-70
2023/12/24 03:18:22;;;;;;;3.05;1.70;;;;;;;7.37;65.61;98060.97;5108124;28;20055;-70
2023/12/24 03:20:49;;;;;;;2.33;1.50;;;;;;;7.37;65.22;98058.31;5106610;28;20044;-70
2023/12/24 03:23:15;;;;;;;2.38;1.38;;;;;;;7.40;65.17;98078.38;5107670;28;20040;-70
2023/12/24 03:25:42;;;;;;;2.15;1.40;;;;;;;7.43;65.03;98066.78;5107498;28;20040;-70
2023/12/24 03:28:10;;;;;;;2.00;1.40;;;;;;;7.39;65.21;98071.41;5107617;28;20216;-69
2023/12/24 03:30:36;;;;;;;2.25;1.45;;;;;;;7.42;64.59;98092.31;5107184;28;20085;-71
2023/12/24 03:33:04;;;;;;;2.03;1.40;;;;;;;6.95;64.66;97974.88;5106589;28;20040;-71
2023/12/24 03:35:30;;;;;;;2.30;1.60;;;;;;;6.28;64.83;97889.50;5107122;28;20044;-71
2023/12/24 03:37:57;;;;;;;2.10;1.40;;;;;;;7.44;64.57;98097.47;5107110;28;20312;-71
2023/12/24 03:40:23;;;;;;;2.75;1.52;;;;;;;7.46;64.56;98090.31;5107395;28;20055;-71
2023/12/24 03:42:50;;;;;;;2.40;1.75;;;;;;;7.44;64.77;98089.56;5107584;28;20101;-71
2023/12/24 03:45:18;;;;;;;3.75;2.30;;;;;;;7.45;64.54;98086.84;5106851;28;20044;-71
2023/12/24 03:47:44;;;;;;;2.55;1.50;;;;;;;7.43;64.68;98122.16;5107217;28;20303;-71
2023/12/24 03:50:11;;;;;;;2.67;1.73;;;;;;;7.29;64.48;98036.00;5107203;28;20063;-71
2023/12/24 03:52:38;;;;;;;2.13;1.40;;;;;;;7.41;64.63;98071.31;5107133;28;20036;-71
2023/12/24 03:55:05;;;;;;;2.60;1.40;;;;;;;7.42;64.69;98084.41;5106570;28;20055;-71
2023/12/24 03:57:32;;;;;;;2.25;1.48;;;;;;;7.40;64.63;98083.66;5106056;28;20056;-71
2023/12/24 03:59:58;;;;;;;2.78;1.50;;;;;;;7.43;64.54;98086.09;5106501;28;20241;-71
2023/12/24 04:02:26;;;;;;;2.92;1.80;;;;;;;7.45;64.47;98086.84;5106969;28;20044;-71
2023/12/24 04:04:53;;;;;;;2.20;1.35;;;;;;;7.43;64.31;98072.91;5106931;28;20040;-71
2023/12/24 04:07:20;;;;;;;2.60;1.50;;;;;;;7.45;64.32;98109.72;5106482;28;20052;-70
2023/12/24 04:09:46;;;;;;;2.30;1.40;;;;;;;7.40;64.25;98074.91;5107002;28;20050;-71
2023/12/24 04:12:13;;;;;;;1.90;1.30;;;;;;;7.35;64.63;98106.81;5106446;28;20040;-70
2023/12/24 04:14:40;;;;;;;2.33;1.50;;;;;;;7.40;64.40;98140.78;5106986;28;20196;-70
2023/12/24 04:17:07;;;;;;;2.00;1.30;;;;;;;7.37;64.66;98126.00;5106630;28;20040;-70
2023/12/24 04:19:35;;;;;;;2.03;1.30;;;;;;;7.37;64.57;98108.41;5106452;28;20055;-70
2023/12/24 04:22:02;;;;;;;1.98;1.30;;;;;;;7.41;64.38;98124.88;5106850;28;20056;-70
2023/12/24 04:24:29;;;;;;;2.25;1.58;;;;;;;7.43;64.30;98122.16;5106471;28;20040;-70
2023/12/24 04:26:55;;;;;;;2.20;1.45;;;;;;;7.29;64.22;98115.06;5106165;28;20044;-70
2023/12/24 04:29:22;;;;;;;3.75;1.67;;;;;;;7.44;64.09;98127.31;5106397;28;20212;-70
2023/12/24 04:31:49;;;;;;;2.30;1.45;;;;;;;7.42;64.13;98147.66;5106376;28;20097;-70
2023/12/24 04:34:15;;;;;;;1.92;1.33;;;;;;;7.42;64.31;98145.03;5106567;28;20043;-70
2023/12/24 04:36:43;;;;;;;3.17;1.38;;;;;;;7.43;64.11;98128.28;5106417;28;20208;-70
2023/12/24 04:39:10;;;;;;;2.05;1.30;;;;;;;7.42;64.40;98144.19;5105888;28;20048;-70
2023/12/24 04:41:37;;;;;;;2.75;1.30;;;;;;;7.43;63.98;98183.63;5106497;28;20093;-70
2023/12/24 04:44:03;;;;;;;2.00;1.38;;;;;;;7.44;64.08;98195.00;5106244;28;20048;-71
2023/12/24 04:46:30;;;;;;;3.17;1.50;;;;;;;7.32;63.87;98164.94;5106094;28;20032;-70
2023/12/24 04:48:57;;;;;;;1.98;1.35;;;;;;;7.47;63.83;98166.69;5106384;28;20044;-70
2023/12/24 04:51:23;;;;;;;2.10;1.40;;;;;;;7.32;63.90;98151.78;5106113;28;20063;-71
2023/12/24 04:53:51;;;;;;;2.78;1.40;;;;;;;7.41;64.20;98187.28;5106095;28;20036;-70
2023/12/24 04:56:22;;;;;;;1.95;1.40;;;;;;;7.43;64.07;98181.00;5105617;28;20039;-70
2023/12/24 04:58:48;;;;;;;2.30;1.40;;;;;;;7.44;63.66;98179.19;5104848;28;20051;-70
2023/12/24 05:01:16;;;;;;;2.17;1.60;;;;;;;7.45;63.64;98176.47;5106056;28;20342;-70
2023/12/24 05:03:43;;;;;;;3.28;1.50;;;;;;;7.47;63.95;98192.19;5106008;28;20110;-70
2023/12/24 05:06:10;;;;;;;2.47;1.50;;;;;;;7.43;63.85;98202.06;5104742;28;20040;-70
2023/12/24 05:08:39;;;;;;;2.33;1.35;;;;;;;7.44;63.75;98209.03;5105756;28;20173;-71
2023/12/24 05:11:08;;;;;;;2.03;1.30;;;;;;;7.40;63.99;98201.41;5105048;28;20043;-70
2023/12/24 05:13:36;;;;;;;1.88;1.25;;;;;;;7.20;63.69;98182.34;5105869;28;20048;-70
2023/12/24 05:16:03;;;;;;;2.60;1.30;;;;;;;7.42;63.93;98226.75;5106166;28;20055;-71
2023/12/24 05:18:30;;;;;;;2.08;1.40;;;;;;;7.23;63.83;98232.22;5105540;28;20040;-70
2023/12/24 05:20:56;;;;;;;2.10;1.40;;;;;;;7.40;63.89;98283.97;5106081;28;20185;-70
2023/12/24 05:23:23;;;;;;;2.00;1.30;;;;;;;7.39;63.79;98232.19;5105606;28;20101;-70
2023/12/24 05:25:50;;;;;;;2.30;1.30;;;;;;;6.35;63.47;98045.22;5105709;28;20043;-71
2023/12/24 05:28:18;;;;;;;2.15;1.55;;;;;;;7.38;64.02;98212.91;5105775;28;20036;-71
2023/12/24 05:30:45;;;;;;;1.83;1.25;;;;;;;6.70;64.04;98124.75;5105768;28;20050;-70
2023/12/24 05:33:12;;;;;;;2.72;1.27;;;;;;;7.38;63.88;98222.59;5105435;28;20081;-71
2023/12/24 05:35:39;;;;;;;2.20;1.40;;;;;;;7.35;64.25;98255.25;5105702;28;20052;-70
2023/12/24 05:38:06;;;;;;;1.67;1.20;;;;;;;7.38;63.97;98239.25;5105439;28;20177;-70
2023/12/24 05:40:33;;;;;;;1.95;1.30;;;;;;;6.52;64.63;98113.50;5105334;28;20090;-71
2023/12/24 05:43:00;;;;;;;2.28;1.38;;;;;;;7.34;64.53;98287.81;5105328;28;20296;-70
2023/12/24 05:45:28;;;;;;;1.77;1.20;;;;;;;7.32;64.30;98260.69;5105599;28;20044;-70
2023/12/24 05:47:55;;;;;;;1.90;1.30;;;;;;;7.38;64.13;98264.78;5105799;28;20044;-70
2023/12/24 05:50:23;;;;;;;2.10;1.40;;;;;;;7.34;63.90;98279.91;5105627;28;20048;-69
2023/12/24 05:52:50;;;;;;;1.70;1.20;;;;;;;7.33;64.05;98296.66;5105548;28;20070;-69
2023/12/24 05:55:16;;;;;;;1.92;1.27;;;;;;;7.08;64.33;98246.31;5104654;28;20047;-68
2023/12/24 05:57:43;;;;;;;2.58;1.30;;;;;;;7.33;64.30;98291.41;5105159;28;20078;-68
2023/12/24 06:00:11;;;;;;;2.08;1.40;;;;;;;7.33;64.29;98272.94;5105179;28;20040;-69
2023/12/24 06:02:39;;;;;;;2.28;1.40;;;;;;;7.24;64.39;98284.00;5105758;28;20086;-68
2023/12/24 06:05:06;;;;;;;2.20;1.40;;;;;;;7.30;64.69;98288.91;5105393;28;20210;-68
2023/12/24 06:07:32;;;;;;;2.28;1.58;;;;;;;7.29;64.69;98286.38;5105285;28;20090;-69
2023/12/24 06:09:59;;;;;;;2.03;1.30;;;;;;;7.28;64.77;98298.69;5105639;28;20039;-69
2023/12/24 06:12:26;;;;;;;2.00;1.50;;;;;;;7.26;64.94;98300.56;5105119;28;20056;-69
2023/12/24 06:14:52;;;;;;;1.80;1.20;;;;;;;7.32;64.56;98291.47;5105087;28;20051;-69
2023/12/24 06:17:19;;;;;;;2.25;1.42;;;;;;;7.30;64.61;98298.59;5105577;28;20036;-68
2023/12/24 06:19:47;;;;;;;5.70;1.60;;;;;;;7.14;64.56;98272.31;5104687;28;20179;-70
2023/12/24 06:22:14;;;;;;;2.42;1.50;;;;;;;7.15;64.51;98270.50;5107277;28;20052;-70
2023/12/24 06:24:40;;;;;;;3.00;1.40;;;;;;;7.30;64.57;98293.34;5109126;28;20235;-70
2023/12/24 06:27:07;;;;;;;2.92;1.30;;;;;;;7.13;64.25;98259.22;5108754;28;20043;-70
2023/12/24 06:29:36;;;;;;;2.00;1.20;;;;;;;7.30;64.33;98299.44;5108496;28;20308;-70
2023/12/24 06:32:03;;;;;;;2.33;1.55;;;;;;;7.31;64.24;98285.34;5108812;28;20093;-69
2023/12/24 06:34:31;;;;;;;1.95;1.20;;;;;;;7.33;63.94;98274.75;5108936;28;20253;-69
2023/12/24 06:36:59;;;;;;;2.40;1.30;;;;;;;7.16;63.94;98262.53;5107551;28;20040;-70
2023/12/24 06:39:25;;;;;;;1.92;1.30;;;;;;;7.36;63.62;98280.69;5108327;28;20097;-70
2023/12/24 06:41:53;;;;;;;4.40;1.55;;;;;;;7.36;63.67;98264.00;5108789;28;20040;-70
2023/12/24 06:44:19;;;;;;;2.00;1.30;;;;;;;7.33;63.48;98285.28;5108750;28;20231;-69
2023/12/24 06:46:46;;;;;;;2.08;1.40;;;;;;;7.36;63.35;98279.81;5108351;28;20047;-70
2023/12/24 06:49:13;;;;;;;4.25;1.30;;;;;;;7.37;63.26;98299.97;5108065;28;20043;-70
2023/12/24 06:51:40;;;;;;;2.20;1.40;;;;;;;7.40;62.85;98312.13;5108156;28;20048;-69
2023/12/24 06:54:08;;;;;;;2.17;1.48;;;;;;;7.38;62.96;98305.16;5107970;28;20090;-71
2023/12/24 06:56:34;;;;;;;2.20;1.40;;;;;;;7.41;62.63;98316.47;5107895;28;20064;-70
2023/12/24 06:59:02;;;;;;;1.95;1.42;;;;;;;7.44;62.19;98316.28;5107867;28;20258;-69
2023/12/24 07:01:29;;;;;;;2.03;1.40;;;;;;;7.26;62.20;98262.81;5108050;28;20052;-70
2023/12/24 07:03:56;;;;;;;2.28;1.40;;;;;;;7.42;62.06;98302.34;5107806;28;20319;-70
2023/12/24 07:06:23;;;;;;;2.33;1.50;;;;;;;7.29;61.78;98289.00;5107883;28;20052;-70
2023/12/24 07:08:50;;;;;;;2.30;1.65;;;;;;;7.12;61.55;98239.94;5107907;28;20043;-70
2023/12/24 07:11:18;;;;;;;2.20;1.40;;;;;;;7.49;61.66;98311.59;5107523;28;20235;-70
2023/12/24 07:13:44;;;;;;;2.22;1.48;;;;;;;7.46;61.73;98293.31;5107839;28;20059;-70
2023/12/24 07:16:11;;;;;;;2.47;1.40;;;;;;;7.48;61.52;98316.00;5107780;28;20036;-70
2023/12/24 07:18:38;;;;;;;2.15;1.30;;;;;;;7.51;61.55;98346.63;5107837;28;20036;-69
2023/12/24 07:21:06;;;;;;;2.67;1.60;;;;;;;7.49;61.48;98338.81;5107430;28;20051;-69
2023/12/24 07:23:32;;;;;;;2.38;1.58;;;;;;;7.51;61.00;98323.75;5107753;28;20044;-70
2023/12/24 07:25:59;;;;;;;2.30;1.60;;;;;;;7.51;61.29;98296.53;5107922;28;20204;-70
2023/12/24 07:28:27;;;;;;;2.40;1.50;;;;;;;7.35;61.41;98271.06;5107328;28;20101;-69
2023/12/24 07:30:53;;;;;;;2.50;1.40;;;;;;;7.51;61.36;98307.91;5107692;28;20040;-70
2023/12/24 07:33:20;;;;;;;2.58;1.58;;;;;;;7.55;61.31;98317.34;5107379;28;20077;-70
2023/12/24 07:35:47;;;;;;;2.33;1.50;;;;;;;7.58;61.28;98324.22;5106620;28;20040;-69
2023/12/24 07:38:14;;;;;;;3.00;1.60;;;;;;;7.42;61.16;98282.09;5107373;28;20070;-70
2023/12/24 07:40:41;;;;;;;2.35;1.42;;;;;;;7.54;61.31;98297.19;5107471;28;20044;-70
2023/12/24 07:43:10;;;;;;;2.33;1.55;;;;;;;6.94;61.21;98217.28;5107268;28;20119;-70
2023/12/24 07:45:38;;;;;;;2.05;1.40;;;;;;;7.59;61.06;98320.66;5107754;28;20059;-70
2023/12/24 07:48:08;;;;;;;2.60;1.60;;;;;;;7.64;60.70;98310.69;5106314;28;20050;-69
2023/12/24 07:50:35;;;;;;;3.42;1.63;;;;;;;7.65;60.96;98326.41;5107126;28;20059;-70
2023/12/24 07:53:01;;;;;;;2.72;1.30;;;;;;;7.44;60.88;98298.69;5107378;28;20239;-70
2023/12/24 07:55:28;;;;;;;2.30;1.77;;;;;;;7.67;60.77;98337.72;5107290;28;20051;-71
2023/12/24 07:57:54;;;;;;;2.47;1.50;;;;;;;7.64;60.81;98329.97;5106610;28;20047;-71
2023/12/24 08:00:21;;;;;;;2.20;1.38;;;;;;;7.69;60.41;98329.72;5107304;28;20204;-69
2023/12/24 08:02:49;;;;;;;2.22;1.60;;;;;;;7.72;60.37;98333.94;5106929;28;20350;-70
2023/12/24 08:05:16;;;;;;;2.70;1.42;;;;;;;7.65;60.49;98318.50;5106790;28;20137;-70
2023/12/24 08:07:43;;;;;;;3.08;1.80;;;;;;;7.70;60.09;98349.88;5106461;28;20210;-70
2023/12/24 08:10:10;;;;;;;2.88;1.70;;;;;;;7.42;60.25;98310.25;5106795;28;20044;-70
2023/12/24 08:12:37;;;;;;;2.17;1.65;;;;;;;7.71;60.14;98354.19;5106621;28;20062;-70
2023/12/24 08:15:04;;;;;;;2.25;1.50;;;;;;;7.76;60.10;98365.31;5106629;28;20063;-70
2023/12/24 08:17:31;;;;;;;2.15;1.40;;;;;;;7.76;60.11;98360.06;5106435;28;20064;-69
2023/12/24 08:20:00;;;;;;;3.83;1.50;;;;;;;7.83;59.57;98376.38;5106554;28;20346;-70
2023/12/24 08:22:26;;;;;;;2.63;1.55;;;;;;;7.77;59.90;98380.22;5106446;28;20047;-70
2023/12/24 08:24:55;;;;;;;2.53;1.60;;;;;;;7.79;60.00;98370.41;5106919;28;20212;-70
2023/12/24 08:27:22;;;;;;;2.20;1.50;;;;;;;7.79;60.01;98414.41;5106283;28;20333;-71
2023/12/24 08:29:49;;;;;;;2.58;1.58;;;;;;;7.82;59.57;98351.78;5106080;28;20101;-71
2023/12/24 08:32:15;;;;;;;2.97;1.50;;;;;;;7.67;59.23;98342.13;5106362;28;20039;-71
2023/12/24 08:34:42;;;;;;;2.40;1.50;;;;;;;7.89;59.38;98376.84;5106347;28;20312;-71
2023/12/24 08:37:10;;;;;;;2.20;1.38;;;;;;;7.89;59.69;98376.00;5105998;28;20044;-71
2023/12/24 08:39:37;;;;;;;2.10;1.50;;;;;;;7.90;59.47;98372.41;5106302;28;20055;-71
2023/12/24 08:42:04;;;;;;;2.45;1.70;;;;;;;7.96;59.28;98401.06;5106576;28;20301;-70
2023/12/24 08:44:30;;;;;;;3.45;1.77;;;;;;;7.92;59.32;98371.38;5105661;28;20120;-70
2023/12/24 08:46:57;;;;;;;2.25;1.40;;;;;;;7.94;59.08;98406.44;5106158;28;20044;-71
2023/12/24 08:49:24;;;;;;;2.17;1.40;;;;;;;7.95;58.95;98391.47;5105862;28;20082;-70
2023/12/24 08:51:51;;;;;;;2.20;1.40;;;;;;;7.97;58.91;98400.97;5106345;28;20177;-71
2023/12/24 08:54:19;;;;;;;2.20;1.60;;;;;;;7.98;58.79;98410.59;5106086;28;20243;-71
2023/12/24 08:56:45;;;;;;;2.40;1.60;;;;;;;8.01;58.88;98415.69;5105644;28;20060;-71
2023/12/24 08:59:12;;;;;;;2.22;1.52;;;;;;;8.04;58.86;98393.53;5106039;28;20105;-71
2023/12/24 09:01:43;;;;;;;2.17;1.67;;;;;;;8.03;59.02;98397.13;5106335;28;20212;-71
2023/12/24 09:04:10;;;;;;;2.20;1.50;;;;;;;7.99;59.07;98392.97;5105912;28;20052;-70
2023/12/24 09:06:37;;;;;;;2.28;1.45;;;;;;;8.03;58.78;98420.88;5105653;28;20044;-70
2023/12/24 09:09:04;;;;;;;1.90;1.30;;;;;;;8.05;58.93;98408.44;5105920;28;20062;-70
2023/12/24 09:11:33;;;;;;;2.85;1.63;;;;;;;8.07;58.64;98403.06;5105929;28;20043;-70
2023/12/24 09:13:59;;;;;;;2.15;1.38;;;;;;;8.09;58.55;98436.34;5104767;28;20051;-70
2023/12/24 09:16:26;;;;;;;2.25;1.70;;;;;;;8.11;58.55;98417.78;5105770;28;20085;-70
2023/12/24 09:18:52;;;;;;;3.58;1.63;;;;;;;8.08;58.49;98418.81;5105733;28;20039;-70
2023/12/24 09:21:19;;;;;;;3.55;1.42;;;;;;;8.11;58.47;98417.78;5105779;28;20048;-72
2023/12/24 09:23:46;;;;;;;1.90;1.45;;;;;;;8.11;58.57;98404.59;5105838;28;20039;-69
2023/12/24 09:26:12;;;;;;;2.38;1.50;;;;;;;8.10;58.42;98405.53;5105463;28;20040;-69
2023/12/24 09:28:40;;;;;;;3.08;1.60;;;;;;;8.15;58.32;98414.00;5105435;28;20101;-69
2023/12/24 09:31:07;;;;;;;2.20;1.50;;;;;;;8.19;58.17;98424.28;5105145;28;20059;-68
2023/12/24 09:33:34;;;;;;;2.30;1.42;;;;;;;8.21;58.28;98429.47;5105909;28;20044;-70
2023/12/24 09:36:06;;;;;;;2.13;1.60;;;;;;;8.19;58.32;98410.25;5105649;28;20055;-69
2023/12/24 09:38:33;;;;;;;2.47;1.50;;;;;;;8.21;58.40;98427.69;5105664;28;20036;-70
2023/12/24 09:41:00;;;;;;;2.35;1.65;;;;;;;8.04;58.32;98412.03;5105489;28;20243;-70
2023/12/24 09:43:30;;;;;;;3.25;1.50;;;;;;;7.90;58.32;98352.16;5105748;28;20047;-70
2023/12/24 09:45:59;;;;;;;2.08;1.40;;;;;;;8.23;58.12;98443.44;5105938;28;20044;-70
2023/12/24 09:48:26;;;;;;;3.38;1.45;;;;;;;8.25;58.30;98423.06;5105457;28;20200;-70
2023/12/24 09:50:52;;;;;;;2.20;1.70;;;;;;;8.28;58.09;98436.09;5105274;28;20120;-70
2023/12/24 09:53:19;;;;;;;2.17;1.63;;;;;;;8.27;57.75;98447.59;5105484;28;20101;-69
2023/12/24 09:55:45;;;;;;;2.40;1.38;;;;;;;8.28;57.96;98430.81;5105543;28;20044;-69
2023/12/24 09:58:14;;;;;;;2.25;1.40;;;;;;;8.32;57.91;98421.75;5108789;28;20048;-71
2023/12/24 10:00:40;;;;;;;2.55;1.50;;;;;;;8.31;57.75;98407.72;5108998;28;20044;-70
2023/12/24 10:03:08;;;;;;;2.45;1.50;;;;;;;8.33;58.05;98419.03;5108962;28;20326;-69
2023/12/24 10:05:59;;;;;;;2.42;1.50;;;;;;;8.39;57.52;98403.75;5109135;28;20107;-70
2023/12/24 10:08:26;;;;;;;2.10;1.40;;;;;;;7.75;57.75;98353.06;5109148;28;20332;-71
2023/12/24 10:10:53;;;;;;;2.13;1.40;;;;;;;8.36;58.17;98402.16;5109043;28;20056;-70
2023/12/24 10:13:21;;;;;;;2.45;1.60;;;;;;;8.38;58.00;98395.00;5109075;28;20098;-69
2023/12/24 10:15:47;;;;;;;2.90;1.40;;;;;;;8.41;57.82;98408.00;5108948;28;20047;-70
2023/12/24 10:18:19;;;;;;;4.05;1.55;;;;;;;7.48;57.65;98242.19;5108750;28;20081;-70
2023/12/24 10:20:46;;;;;;;2.40;1.40;;;;;;;8.33;58.02;98373.31;5108943;28;20044;-70
2023/12/24 10:23:13;;;;;;;2.28;1.60;;;;;;;8.44;57.96;98402.53;5108605;28;20074;-70
2023/12/24 10:25:40;;;;;;;2.70;1.55;;;;;;;8.45;57.87;98379.63;5108807;28;20203;-70
2023/12/24 10:28:07;;;;;;;2.40;1.50;;;;;;;7.70;57.88;98281.28;5108475;28;20207;-70
2023/12/24 10:30:34;;;;;;;2.30;1.73;;;;;;;8.48;57.80;98390.00;5108719;28;20051;-70
2023/12/24 10:33:08;;;;;;;2.88;1.50;;;;;;;8.48;57.97;98429.59;5108749;28;20052;-70
2023/12/24 10:35:36;;;;;;;2.10;1.33;;;;;;;8.46;57.80;98379.53;5108395;28;20082;-70
2023/12/24 10:38:13;;;;;;;3.17;1.85;;;;;;;8.53;57.68;98393.19;5108594;28;20177;-70
2023/12/24 10:40:40;;;;;;;2.25;1.40;;;;;;;8.52;57.89;98394.13;5108080;28;20048;-70
2023/12/24 10:43:06;;;;;;;2.65;1.60;;;;;;;8.27;57.61;98377.16;5108263;28;20048;-70
2023/12/24 10:45:34;;;;;;;2.03;1.40;;;;;;;8.31;57.74;98352.28;5108206;28;20047;-70
2023/12/24 10:48:01;;;;;;;2.97;1.60;;;;;;;8.51;57.71;98369.53;5108732;28;20126;-70
2023/12/24 10:50:28;;;;;;;2.10;1.30;;;;;;;8.51;57.89;98406.50;5108105;28;20319;-69
2023/12/24 10:52:56;;;;;;;3.08;1.73;;;;;;;8.47;57.86;98410.25;5107979;28;20409;-70
2023/12/24 10:55:23;;;;;;;2.35;1.50;;;;;;;8.54;57.88;98402.81;5108238;28;20144;-69
2023/12/24 10:57:59;;;;;;;2.92;1.65;;;;;;;8.58;57.80;98373.47;5107737;28;20061;-70
2023/12/24 11:00:27;;;;;;;2.33;1.50;;;;;;;8.61;57.81;98378.56;5107942;28;20256;-69
2023/12/24 11:02:54;;;;;;;3.72;1.80;;;;;;;8.60;58.02;98390.06;5108163;28;20064;-70
2023/12/24 11:05:46;;;;;;;3.30;1.85;;;;;;;8.59;57.84;98403.38;5108318;28;20043;-70
2023/12/24 11:11:10;;;;;;;2.00;1.30;;;;;;;8.58;58.17;98367.34;5124445;27;20609;-70
2023/12/24 11:13:47;;;;;;;2.38;1.50;;;;;;;8.64;58.00;98369.59;5123956;28;20051;-71
2023/12/24 11:16:41;;;;;;;2.58;1.60;;;;;;;8.63;57.96;98363.47;5123748;28;20043;-71
2023/12/24 11:19:22;;;;;;;2.30;1.42;;;;;;;8.60;57.97;98366.31;5123709;28;20203;-69
2023/12/24 11:22:09;;;;;;;2.50;1.40;;;;;;;8.65;57.92;98411.78;5123608;28;20043;-71
2023/12/24 11:24:41;;;;;;;3.75;1.70;;;;;;;8.63;58.31;98373.19;5122505;28;20089;-70
2023/12/24 11:27:10;;;;;;;2.17;1.30;;;;;;;8.66;58.25;98373.00;5123702;28;20063;-71
2023/12/24 11:29:47;;;;;;;2.30;1.40;;;;;;;8.66;58.10;98394.13;5123311;28;20055;-70
2023/12/24 11:32:36;;;;;;;2.40;1.45;;;;;;;8.67;58.47;98379.97;5122278;28;20051;-70
2023/12/24 11:35:03;;;;;;;2.40;1.50;;;;;;;8.51;58.42;98363.38;5123102;28;20092;-70
2023/12/24 11:37:31;;;;;;;2.20;1.50;;;;;;;8.36;58.30;98322.94;5123089;28;20244;-70
2023/12/24 11:40:00;;;;;;;2.45;1.50;;;;;;;8.66;58.68;98368.56;5123543;28;20292;-71
2023/12/24 11:42:44;;;;;;;3.15;1.63;;;;;;;8.65;58.80;98358.94;5123251;28;20119;-69
2023/12/24 11:45:25;;;;;;;1.95;1.40;;;;;;;8.65;59.05;98366.88;5123204;28;20335;-71
2023/12/24 11:47:52;;;;;;;2.25;1.40;;;;;;;8.66;59.12;98365.91;5122866;27;20063;-69